Time;durP1;ratioP1;P1;durP2;ratioP2;P2;SDS_P1;SDS_P2;PMS_P1;PMS_P2;Temp;Humidity;BMP_temperature;BMP_pressure;BME280_temperature;BME280_humidity;BME280_pressure;Samples;Min_cycle;Max_cycle;Signal;HPM_P1;HPM_P2
2022/02/03 00:03:12;;;;;;;13.55;8.65;;;;;;;;;;5055339;28;20040;-78
2022/02/03 00:24:12;;;;;;;12.40;7.72;;;;;;;;;;5039193;28;20524;-78
2022/02/03 00:26:43;;;;;;;11.73;7.18;;;;;;;;;;5052880;28;20029;-78
2022/02/03 00:29:18;;;;;;;10.65;7.30;;;;;;;;;;5059056;28;20039;-77
2022/02/03 00:34:40;;;;;;;15.55;7.65;;;;;;;;;;5060299;28;20797;-78
2022/02/03 00:37:16;;;;;;;14.07;8.00;;;;;;;;;;5057264;28;20576;-78
2022/02/03 00:50:47;;;;;;;11.00;7.38;;;;;;;;;;5060084;28;20523;-76
2022/02/03 00:53:14;;;;;;;11.95;8.35;;;;;;;;;;5065511;28;20633;-78
2022/02/03 00:55:42;;;;;;;13.65;7.63;;;;;;;;;;5057804;28;20021;-78
2022/02/03 00:58:10;;;;;;;14.35;8.10;;;;;;;;;;5056263;28;20029;-79
2022/02/03 01:00:37;;;;;;;13.20;8.02;;;;;;;;;;5055599;28;20029;-78
2022/02/03 01:03:13;;;;;;;11.25;7.43;;;;;;;;;;5055995;28;20039;-77
2022/02/03 01:05:40;;;;;;;10.10;7.28;;;;;;;;;;5054540;28;20091;-77
2022/02/03 01:08:17;;;;;;;11.63;7.35;;;;;;;;;;5053172;28;20451;-76
2022/02/03 01:10:52;;;;;;;12.25;7.80;;;;;;;;;;5053964;28;20025;-77
2022/02/03 01:14:08;;;;;;;11.00;7.57;;;;;;;;;;5054752;28;20028;-77
2022/02/03 01:16:38;;;;;;;11.88;7.90;;;;;;;;;;5051047;28;20497;-77
2022/02/03 01:48:33;;;;;;;10.35;7.35;;;;;;;;;;5033916;28;20044;-77
2022/02/03 01:53:45;;;;;;;8.38;6.38;;;;;;;;;;5053971;28;20087;-77
2022/02/03 01:56:12;;;;;;;9.77;6.38;;;;;;;;;;5052359;28;20493;-77
2022/02/03 01:58:44;;;;;;;9.45;6.93;;;;;;;;;;5033370;28;20533;-76
2022/02/03 02:01:12;;;;;;;9.10;6.40;;;;;;;;;;5044843;28;20029;-77
2022/02/03 02:03:45;;;;;;;12.02;6.18;;;;;;;;;;5053545;28;20036;-77
2022/02/03 02:06:11;;;;;;;;;;;;;;;;;;5053979;28;20025;-77
2022/02/03 02:08:37;;;;;;;7.63;5.75;;;;;;;;;;5052897;28;19911;-76
2022/02/03 02:11:24;;;;;;;6.93;5.38;;;;;;;;;;5053348;28;20094;-77
2022/02/03 02:44:03;;;;;;;8.27;5.78;;;;;;;;;;5053883;28;20036;-78
2022/02/03 02:46:35;;;;;;;9.57;6.60;;;;;;;;;;5032825;28;20104;-78
2022/02/03 02:49:20;;;;;;;9.90;6.28;;;;;;;;;;5040611;28;20052;-78
2022/02/03 02:52:06;;;;;;;8.55;5.97;;;;;;;;;;5051396;28;20056;-78
2022/02/03 02:55:00;;;;;;;8.80;6.25;;;;;;;;;;5051276;28;20112;-78
2022/02/03 03:30:55;;;;;;;11.30;6.88;;;;;;;;;;5052465;28;20112;-78
2022/02/03 03:35:56;;;;;;;10.90;7.78;;;;;;;;;;5053201;28;20045;-78
2022/02/03 03:38:24;;;;;;;12.80;7.88;;;;;;;;;;5053115;28;20079;-79
2022/02/03 03:40:52;;;;;;;11.02;7.63;;;;;;;;;;5052734;28;20451;-78
2022/02/03 03:43:27;;;;;;;11.13;6.97;;;;;;;;;;5053615;28;20481;-78
2022/02/03 03:45:54;;;;;;;12.25;7.45;;;;;;;;;;5053489;28;20025;-79
2022/02/03 03:48:21;;;;;;;13.35;7.65;;;;;;;;;;5052922;28;20049;-78
2022/02/03 03:50:52;;;;;;;10.50;7.22;;;;;;;;;;5051399;28;20097;-77
2022/02/03 03:53:30;;;;;;;10.20;7.18;;;;;;;;;;5053204;28;20020;-78
2022/02/03 03:56:06;;;;;;;10.30;7.47;;;;;;;;;;5053253;28;20021;-77
2022/02/03 04:53:44;;;;;;;15.52;8.90;;;;;;;;;;5053200;28;20036;-78
2022/02/03 04:59:29;;;;;;;12.07;8.60;;;;;;;;;;5052254;28;20025;-79
2022/02/03 05:05:08;;;;;;;13.63;8.80;;;;;;;;;;5030765;28;20018;-77
2022/02/03 05:13:28;;;;;;;14.13;9.98;;;;;;;;;;5058774;28;20017;-77
2022/02/03 05:44:08;;;;;;;14.30;8.95;;;;;;;;;;5054443;28;20661;-79
2022/02/03 05:50:21;;;;;;;11.65;8.45;;;;;;;;;;5044589;28;20041;-76
2022/02/03 06:09:05;;;;;;;14.38;8.68;;;;;;;;;;5033853;28;20053;-77
2022/02/03 06:14:15;;;;;;;15.15;9.88;;;;;;;;;;5053534;28;20048;-77
2022/02/03 06:22:29;;;;;;;14.82;10.23;;;;;;;;;;5041551;28;20060;-79
2022/02/03 06:27:39;;;;;;;16.20;9.88;;;;;;;;;;5043367;28;20029;-79
2022/02/03 06:30:06;;;;;;;15.88;9.68;;;;;;;;;;5053832;28;20021;-77
2022/02/03 06:32:32;;;;;;;14.63;10.07;;;;;;;;;;5057629;28;20056;-77
2022/02/03 06:34:58;;;;;;;16.85;9.30;;;;;;;;;;5059917;28;20024;-78
2022/02/03 06:37:27;;;;;;;17.85;9.77;;;;;;;;;;5057518;28;20035;-79
2022/02/03 06:39:53;;;;;;;15.65;10.07;;;;;;;;;;5054681;28;20036;-78
2022/02/03 06:42:19;;;;;;;16.05;10.48;;;;;;;;;;5055171;28;20183;-78
2022/02/03 06:44:50;;;;;;;17.00;10.27;;;;;;;;;;5055559;28;20036;-77
2022/02/03 06:52:41;;;;;;;14.35;9.77;;;;;;;;;;5054772;28;20025;-78
2022/02/03 06:55:13;;;;;;;15.52;10.68;;;;;;;;;;5046527;28;20668;-78
2022/02/03 06:57:46;;;;;;;15.65;10.43;;;;;;;;;;5046394;28;20032;-78
2022/02/03 07:00:22;;;;;;;22.00;10.60;;;;;;;;;;5049055;28;20025;-79
2022/02/03 07:02:52;;;;;;;19.52;11.35;;;;;;;;;;5054440;28;20036;-77
2022/02/03 07:05:18;;;;;;;17.23;10.85;;;;;;;;;;5053913;28;20040;-79
2022/02/03 07:07:44;;;;;;;21.48;12.30;;;;;;;;;;5053630;28;20028;-78
2022/02/03 07:10:11;;;;;;;19.83;11.75;;;;;;;;;;5052762;28;20086;-78
2022/02/03 07:12:38;;;;;;;20.13;12.82;;;;;;;;;;5058716;28;20017;-77
2022/02/03 07:15:05;;;;;;;15.07;10.50;;;;;;;;;;5060147;28;20021;-77
2022/02/03 07:17:33;;;;;;;14.73;10.00;;;;;;;;;;5054004;28;20021;-77
2022/02/03 07:20:04;;;;;;;15.65;9.77;;;;;;;;;;5052940;28;20017;-77
2022/02/03 07:22:30;;;;;;;17.77;10.23;;;;;;;;;;5053860;28;20025;-77
2022/02/03 07:24:56;;;;;;;17.92;10.32;;;;;;;;;;5054280;28;20039;-78
2022/02/03 07:27:23;;;;;;;15.25;10.35;;;;;;;;;;5036668;28;20040;-77
2022/02/03 07:29:50;;;;;;;16.77;11.13;;;;;;;;;;5052464;28;20508;-77
2022/02/03 07:32:16;;;;;;;16.33;11.30;;;;;;;;;;5054100;28;20025;-77
2022/02/03 07:34:42;;;;;;;17.58;11.82;;;;;;;;;;5053314;28;20025;-77
2022/02/03 07:37:08;;;;;;;17.38;12.05;;;;;;;;;;5053880;28;20494;-77
2022/02/03 07:39:35;;;;;;;18.10;12.27;;;;;;;;;;5053044;28;20035;-78
2022/02/03 07:42:01;;;;;;;18.95;12.05;;;;;;;;;;5053251;28;20025;-78
2022/02/03 07:44:28;;;;;;;19.95;12.32;;;;;;;;;;5053998;28;20029;-77
2022/02/03 07:46:54;;;;;;;22.65;12.55;;;;;;;;;;5056576;28;20119;-77
2022/02/03 07:49:20;;;;;;;15.63;11.60;;;;;;;;;;5055522;28;20064;-77
2022/02/03 07:51:46;;;;;;;19.05;12.02;;;;;;;;;;5048873;28;20084;-77
2022/02/03 07:54:12;;;;;;;16.35;11.32;;;;;;;;;;5052690;28;20108;-78
2022/02/03 07:56:38;;;;;;;17.50;11.02;;;;;;;;;;5055375;28;20029;-77
2022/02/03 07:59:04;;;;;;;18.30;10.88;;;;;;;;;;5051872;28;20033;-78
2022/02/03 08:01:31;;;;;;;16.77;10.77;;;;;;;;;;5052122;28;20033;-78
2022/02/03 08:03:59;;;;;;;15.38;11.00;;;;;;;;;;5052403;28;20425;-79
2022/02/03 08:06:30;;;;;;;16.85;11.15;;;;;;;;;;5052772;28;20021;-78
2022/02/03 08:09:06;;;;;;;14.55;10.40;;;;;;;;;;5052196;28;20013;-77
2022/02/03 08:11:38;;;;;;;15.68;10.32;;;;;;;;;;5051570;28;20024;-78
2022/02/03 08:16:44;;;;;;;13.32;8.95;;;;;;;;;;5051782;28;20037;-78
2022/02/03 08:19:21;;;;;;;12.55;9.13;;;;;;;;;;5049910;28;20028;-79
2022/02/03 08:21:56;;;;;;;11.88;9.25;;;;;;;;;;5051988;28;20512;-79
2022/02/03 08:24:26;;;;;;;12.05;9.20;;;;;;;;;;5051725;28;20482;-79
2022/02/03 08:30:08;;;;;;;11.90;8.20;;;;;;;;;;5040092;28;20036;-78
2022/02/03 08:32:16;;;;;;;12.25;8.93;;;;;;;;;;5034089;28;20021;-79
2022/02/03 08:37:21;;;;;;;11.00;8.55;;;;;;;;;;5039375;28;20042;-78
2022/02/03 08:39:57;;;;;;;11.95;8.27;;;;;;;;;;5037891;28;20166;-79
2022/02/03 08:42:23;;;;;;;11.23;8.45;;;;;;;;;;5038665;28;20029;-79
2022/02/03 08:44:50;;;;;;;10.93;8.10;;;;;;;;;;5051066;28;20394;-79
2022/02/03 08:47:16;;;;;;;11.38;8.80;;;;;;;;;;5057967;28;20033;-79
2022/02/03 08:49:46;;;;;;;11.23;8.05;;;;;;;;;;5055284;28;20037;-78
2022/02/03 08:52:17;;;;;;;14.80;9.65;;;;;;;;;;5056873;28;20642;-78
2022/02/03 08:54:56;;;;;;;15.80;7.07;;;;;;;;;;5057700;28;20025;-78
2022/02/03 08:57:36;;;;;;;9.10;7.35;;;;;;;;;;5040751;28;20033;-78
2022/02/03 09:38:10;;;;;;;8.25;6.93;;;;;;;;;;5057474;28;20100;-78
2022/02/03 09:57:07;;;;;;;7.95;5.65;;;;;;;;;;5060157;28;20524;-78
2022/02/03 10:02:23;;;;;;;5.68;4.40;;;;;;;;;;5041368;28;20037;-76
2022/02/03 10:05:11;;;;;;;6.13;4.78;;;;;;;;;;5045096;28;20029;-77
2022/02/03 10:07:38;;;;;;;6.88;3.80;;;;;;;;;;5056889;28;20056;-79
2022/02/03 10:10:08;;;;;;;5.47;4.40;;;;;;;;;;5056144;28;20026;-79
2022/02/03 10:12:36;;;;;;;5.47;3.75;;;;;;;;;;5057063;28;20013;-79
2022/02/03 10:15:03;;;;;;;6.13;3.95;;;;;;;;;;5057621;28;20366;-79
2022/02/03 10:17:49;;;;;;;4.25;3.53;;;;;;;;;;5055105;28;20028;-79
2022/02/03 10:20:17;;;;;;;5.57;3.75;;;;;;;;;;5055418;28;20025;-79
2022/02/03 10:22:51;;;;;;;4.28;3.38;;;;;;;;;;5057801;28;20017;-79
2022/02/03 10:25:24;;;;;;;3.55;3.00;;;;;;;;;;5057237;28;20501;-79
2022/02/03 10:27:59;;;;;;;4.65;3.35;;;;;;;;;;5057151;28;20029;-79
2022/02/03 10:30:36;;;;;;;6.25;3.10;;;;;;;;;;5056754;28;20060;-79
2022/02/03 10:33:02;;;;;;;4.68;3.30;;;;;;;;;;5057271;28;20020;-79
2022/02/03 10:35:42;;;;;;;5.32;3.47;;;;;;;;;;5056067;28;20029;-79
2022/02/03 10:38:43;;;;;;;3.95;2.75;;;;;;;;;;5057829;28;20025;-79
2022/02/03 10:47:05;;;;;;;6.78;3.97;;;;;;;;;;5058825;28;20430;-79
2022/02/03 10:54:52;;;;;;;3.00;2.20;;;;;;;;;;5039786;28;20101;-79
2022/02/03 10:57:57;;;;;;;3.83;2.60;;;;;;;;;;5044343;28;20021;-79
2022/02/03 11:09:02;;;;;;;4.50;2.25;;;;;;;;;;5045792;28;20657;-80
2022/02/03 11:11:35;;;;;;;2.95;2.20;;;;;;;;;;5058570;28;20025;-79
2022/02/03 11:14:04;;;;;;;2.78;2.13;;;;;;;;;;5059370;28;20021;-78
2022/02/03 11:16:34;;;;;;;4.82;2.40;;;;;;;;;;5058521;28;20572;-79
2022/02/03 11:19:06;;;;;;;3.40;2.00;;;;;;;;;;5056845;28;20041;-80
2022/02/03 11:21:35;;;;;;;3.33;2.20;;;;;;;;;;5056686;28;20140;-79
2022/02/03 11:24:20;;;;;;;3.13;2.00;;;;;;;;;;5059071;28;20032;-78
2022/02/03 11:47:37;;;;;;;2.53;1.70;;;;;;;;;;5054043;28;20053;-78
2022/02/03 12:15:05;;;;;;;1.77;1.30;;;;;;;;;;5062492;28;20551;-81
2022/02/03 12:17:48;;;;;;;2.03;1.40;;;;;;;;;;5059108;28;20440;-79
2022/02/03 12:20:21;;;;;;;1.77;1.50;;;;;;;;;;5058793;28;20052;-80
2022/02/03 12:25:51;;;;;;;3.60;1.70;;;;;;;;;;5050050;28;20107;-80
2022/02/03 12:28:25;;;;;;;1.85;1.48;;;;;;;;;;5060250;28;20028;-80
2022/02/03 12:38:56;;;;;;;2.92;1.60;;;;;;;;;;5059092;28;20037;-79
2022/02/03 12:41:35;;;;;;;2.92;1.40;;;;;;;;;;5058583;28;20028;-79
2022/02/03 12:44:04;;;;;;;3.50;1.30;;;;;;;;;;5043254;28;20032;-79
2022/02/03 12:46:31;;;;;;;5.22;1.73;;;;;;;;;;5059842;28;20029;-80
2022/02/03 12:49:00;;;;;;;3.63;1.60;;;;;;;;;;5057879;28;20445;-79
2022/02/03 12:51:27;;;;;;;3.28;1.45;;;;;;;;;;5058755;28;20029;-79
2022/02/03 12:53:53;;;;;;;2.67;1.60;;;;;;;;;;5058341;28;20049;-79
2022/02/03 12:56:19;;;;;;;3.78;1.38;;;;;;;;;;5058919;28;20036;-79
2022/02/03 12:58:50;;;;;;;3.05;1.45;;;;;;;;;;5058405;28;20056;-80
2022/02/03 13:01:20;;;;;;;3.70;1.63;;;;;;;;;;5057270;28;20032;-80
2022/02/03 13:03:51;;;;;;;4.07;1.40;;;;;;;;;;5053806;28;20041;-80
2022/02/03 13:06:20;;;;;;;5.05;1.35;;;;;;;;;;5058705;28;20075;-79
2022/02/03 13:08:49;;;;;;;2.75;1.40;;;;;;;;;;5058892;28;20021;-79
2022/02/03 13:11:21;;;;;;;4.10;1.50;;;;;;;;;;5056961;28;20017;-80
2022/02/03 13:13:59;;;;;;;2.08;0.93;;;;;;;;;;5057694;28;20512;-79
2022/02/03 13:16:25;;;;;;;2.08;1.20;;;;;;;;;;5039052;28;20057;-80
2022/02/03 13:18:59;;;;;;;1.98;1.10;;;;;;;;;;5057970;28;20032;-81
2022/02/03 13:21:42;;;;;;;1.80;1.25;;;;;;;;;;5058222;28;20043;-80
2022/02/03 13:26:58;;;;;;;2.47;1.35;;;;;;;;;;5056850;28;20432;-78
2022/02/03 13:29:45;;;;;;;5.20;1.15;;;;;;;;;;5056743;28;20452;-81
2022/02/03 13:32:14;;;;;;;2.22;0.88;;;;;;;;;;5059160;28;20032;-80
2022/02/03 13:34:55;;;;;;;2.00;0.80;;;;;;;;;;5057633;28;20027;-78
2022/02/03 13:37:27;;;;;;;2.33;1.10;;;;;;;;;;5057269;28;20040;-78
2022/02/03 13:40:11;;;;;;;1.40;1.00;;;;;;;;;;5058187;28;20029;-79
2022/02/03 13:42:46;;;;;;;3.38;1.70;;;;;;;;;;5058441;28;20258;-78
2022/02/03 13:45:18;;;;;;;2.13;1.45;;;;;;;;;;5057221;28;20017;-78
2022/02/03 13:47:46;;;;;;;4.50;1.30;;;;;;;;;;5055710;28;20029;-77
2022/02/03 13:50:22;;;;;;;4.00;1.20;;;;;;;;;;5062587;28;20132;-78
2022/02/03 14:22:54;;;;;;;2.50;1.25;;;11.30;99.90;;;;;;5056248;28;20024;-79
2022/02/03 14:27:57;;;;;;;1.83;1.27;;;10.40;99.90;;;;;;5055368;28;20040;-78
2022/02/03 14:30:23;;;;;;;2.00;1.20;;;10.50;99.90;;;;;;5056015;28;20021;-78
2022/02/03 14:32:55;;;;;;;1.98;1.38;;;10.40;99.90;;;;;;5055452;28;20407;-78
2022/02/03 14:35:21;;;;;;;3.15;1.90;;;10.40;99.90;;;;;;5057085;28;20023;-79
2022/02/03 14:37:59;;;;;;;4.40;1.40;;;10.30;99.90;;;;;;5055242;28;20570;-78
2022/02/03 14:42:53;;;;;;;2.85;1.75;;;10.40;99.90;;;;;;5052480;28;20052;-79
2022/02/03 14:45:19;;;;;;;3.05;1.55;;;10.30;99.90;;;;;;5050985;28;20025;-78
2022/02/03 14:47:45;;;;;;;2.50;1.50;;;11.50;99.90;;;;;;5052834;28;20029;-78
2022/02/03 14:50:13;;;;;;;2.10;1.10;;;10.30;99.90;;;;;;5052431;28;20096;-78
2022/02/03 14:52:57;;;;;;;3.47;1.83;;;10.80;99.90;;;;;;5036104;28;20021;-79
2022/02/03 15:00:45;;;;;;;2.08;1.30;;;10.60;99.90;;;;;;5030471;28;20032;-78
2022/02/03 15:03:12;;;;;;;2.92;1.58;;;10.20;99.90;;;;;;5045717;28;20029;-78
2022/02/03 15:05:39;;;;;;;2.22;1.20;;;10.60;99.90;;;;;;5051904;28;20396;-78
2022/02/03 15:08:14;;;;;;;1.95;1.23;;;11.80;99.90;;;;;;5051132;28;20333;-78
2022/02/03 15:10:43;;;;;;;3.05;1.80;;;11.50;99.90;;;;;;5049693;28;20029;-78
2022/02/03 15:13:35;;;;;;;2.42;1.80;;;;;;;;;;5051902;28;20074;-78
2022/02/03 15:15:57;;;;;;;3.50;2.28;;;;;;;;;;5049810;28;20033;-78
2022/02/03 15:18:22;;;;;;;2.95;1.90;;;;;;;;;;5052147;28;20037;-78
2022/02/03 15:20:48;;;;;;;3.17;1.77;;;;;;;;;;5053356;28;20028;-78
2022/02/03 15:23:14;;;;;;;3.55;2.20;;;;;;;;;;5055614;28;20113;-78
2022/02/03 15:25:40;;;;;;;2.80;1.70;;;;;;;;;;5050973;28;20063;-78
2022/02/03 15:28:07;;;;;;;3.05;1.70;;;;;;;;;;5052507;28;20036;-78
2022/02/03 15:30:33;;;;;;;1.75;1.30;;;;;;;;;;5054335;28;20014;-78
2022/02/03 15:32:59;;;;;;;2.03;1.35;;;;;;;;;;5053978;28;20021;-78
2022/02/03 15:35:36;;;;;;;2.80;1.30;;;;;;;;;;5052140;28;20029;-79
2022/02/03 15:38:04;;;;;;;1.77;1.10;;;;;;;;;;5055548;28;20021;-77
2022/02/03 15:40:31;;;;;;;3.55;1.65;;;;;;;;;;5053790;28;20124;-78
2022/02/03 15:43:11;;;;;;;5.93;1.42;;;;;;;;;;5052890;28;20059;-78
2022/02/03 15:45:43;;;;;;;5.10;2.47;;;;;;;;;;5053065;28;20029;-79
2022/02/03 15:48:25;;;;;;;4.00;2.08;;;;;;;;;;5054032;28;20393;-79
2022/02/03 15:56:17;;;;;;;3.55;1.70;;;;;;;;;;5053634;28;20017;-79
2022/02/03 16:16:45;;;;;;;2.22;1.00;;;;;;;;;;5052930;28;20075;-78
2022/02/03 16:18:04;;;;;;;2.50;0.90;;;;;;;;;;5052163;28;20034;-79
2022/02/03 16:20:38;;;;;;;1.65;1.00;;;;;;;;;;5052699;28;20116;-79
2022/02/03 16:55:02;;;;;;;2.95;1.00;;;;;;;;;;5056119;28;20493;-80
2022/02/03 16:57:28;;;;;;;1.77;1.08;;;;;;;;;;5057981;28;20116;-80
2022/02/03 17:00:01;;;;;;;1.73;0.82;;;;;;;;;;5057753;28;20029;-80
2022/02/03 17:02:27;;;;;;;1.30;0.88;;;;;;;;;;5059112;28;20554;-78
2022/02/03 17:04:56;;;;;;;2.13;1.30;;;;;;;;;;5058541;28;20033;-79
2022/02/03 17:07:22;;;;;;;5.70;1.48;;;;;;;;;;5057745;28;20033;-80
2022/02/03 17:09:49;;;;;;;1.60;1.00;;;;;;;;;;5060092;28;20021;-80
2022/02/03 17:12:15;;;;;;;3.00;1.48;;;;;;;;;;5057960;28;20028;-78
2022/02/03 17:14:41;;;;;;;4.85;1.55;;;;;;;;;;5056991;28;20059;-79
2022/02/03 17:17:08;;;;;;;3.42;1.48;;;;;;;;;;5055989;28;20029;-78
2022/02/03 17:19:36;;;;;;;3.05;1.20;;;;;;;;;;5058309;28;20047;-79
2022/02/03 17:22:02;;;;;;;3.75;1.20;;;;;;;;;;5059489;28;20020;-78
2022/02/03 17:24:28;;;;;;;2.40;1.20;;;;;;;;;;5058204;28;20107;-78
2022/02/03 17:27:08;;;;;;;2.75;1.55;;;;;;;;;;5058709;28;20060;-78
2022/02/03 17:29:47;;;;;;;2.88;1.52;;;;;;;;;;5055728;28;20134;-78
2022/02/03 17:45:01;;;;;;;4.32;1.40;;;;;;;;;;5056965;28;20033;-77
2022/02/03 18:07:53;;;;;;;3.05;1.60;;;;;;;;;;5058992;28;20036;-78
2022/02/03 18:10:23;;;;;;;1.70;1.25;;;;;;;;;;5061012;28;20029;-78
2022/02/03 18:52:40;;;;;;;2.63;1.58;;;;;;;;;;5054517;28;20354;-76
2022/02/03 19:14:27;;;;;;;2.60;1.70;;;;;;;;;;5057945;28;20053;-79
2022/02/03 20:07:51;;;;;;;4.40;1.85;;;;;;;;;;5054098;28;20029;-77
2022/02/03 20:10:26;;;;;;;3.40;2.10;;;;;;;;;;5053645;28;20040;-77
2022/02/03 20:12:52;;;;;;;4.43;2.60;;;;;;;;;;5056411;28;20021;-78
2022/02/03 20:15:21;;;;;;;3.40;2.00;;;;;;;;;;5057905;28;20041;-78
2022/02/03 20:17:47;;;;;;;3.13;2.03;;;;;;;;;;5051955;28;20037;-77
2022/02/03 20:20:13;;;;;;;3.88;2.03;;;;;;;;;;5050826;28;20043;-77
2022/02/03 20:22:42;;;;;;;5.85;2.25;;;;;;;;;;5051704;28;20037;-77
2022/02/03 20:25:09;;;;;;;3.72;2.20;;;;;;;;;;5052642;28;20039;-77
2022/02/03 20:27:36;;;;;;;5.00;2.88;;;;;;;;;;5051822;28;20032;-77
2022/02/03 20:30:03;;;;;;;2.72;2.15;;;;;;;;;;5054028;28;20382;-77
2022/02/03 20:32:29;;;;;;;4.18;2.50;;;;;;;;;;5056699;28;20021;-77
2022/02/03 20:35:00;;;;;;;4.35;2.42;;;;;;;;;;5055421;28;20031;-77
2022/02/03 20:37:26;;;;;;;4.55;2.65;;;;;;;;;;5054909;28;20311;-77
2022/02/03 20:39:52;;;;;;;3.92;2.55;;;;;;;;;;5054060;28;20032;-77
2022/02/03 20:42:18;;;;;;;5.22;2.53;;;;;;;;;;5054802;28;20411;-76
2022/02/03 20:44:45;;;;;;;6.78;3.13;;;;;;;;;;5054684;28;20056;-77
2022/02/03 20:47:11;;;;;;;4.60;2.97;;;;;;;;;;5054829;28;20051;-76
2022/02/03 20:49:37;;;;;;;5.57;2.90;;;;;;;;;;5052850;28;20107;-77
2022/02/03 20:52:03;;;;;;;4.68;2.75;;;;;;;;;;5054969;28;20068;-77
2022/02/03 20:54:29;;;;;;;4.70;2.85;;;;;;;;;;5054884;28;20032;-76
2022/02/03 20:56:57;;;;;;;4.63;2.70;;;;;;;;;;5054497;28;20032;-77
2022/02/03 20:59:28;;;;;;;4.13;2.70;;;;;;;;;;5053801;28;20398;-76
2022/02/03 21:01:56;;;;;;;4.85;2.83;;;;;;;;;;5055345;28;20107;-77
2022/02/03 21:04:47;;;;;;;4.93;3.10;;;;;;;;;;5054936;28;20025;-77
2022/02/03 21:07:13;;;;;;;6.55;3.00;;;;;;;;;;5054515;28;20021;-77
2022/02/03 21:09:42;;;;;;;4.85;2.60;;;;;;;;;;5053037;28;20017;-77
2022/02/03 21:12:09;;;;;;;4.03;2.67;;;;;;;;;;5054458;28;20025;-77
2022/02/03 21:14:35;;;;;;;5.25;2.92;;;;;;;;;;5057096;28;20025;-77
2022/02/03 21:17:01;;;;;;;5.50;2.92;;;;;;;;;;5054981;28;20079;-77
2022/02/03 21:19:27;;;;;;;4.43;2.45;;;;;;;;;;5053540;28;20436;-76
2022/02/03 21:21:54;;;;;;;4.75;2.83;;;;;;;;;;5054417;28;20028;-77
2022/02/03 21:24:20;;;;;;;7.32;3.10;;;;;;;;;;5055713;28;20025;-77
2022/02/03 21:26:46;;;;;;;4.22;2.88;;;;;;;;;;5052646;28;20128;-77
2022/02/03 21:29:12;;;;;;;5.03;3.38;;;;;;;;;;5054237;28;20021;-77
2022/02/03 21:31:38;;;;;;;5.85;3.15;;;;;;;;;;5054827;28;20021;-76
2022/02/03 21:34:10;;;;;;;5.05;2.88;;;;;;;;;;5054177;28;20100;-76
2022/02/03 21:36:38;;;;;;;5.43;2.95;;;;;;;;;;5054329;28;20022;-77
2022/02/03 21:39:05;;;;;;;3.97;2.72;;;;;;;;;;5054143;28;20070;-76
2022/02/03 21:41:31;;;;;;;4.85;2.80;;;;;;;;;;5055500;28;20032;-76
2022/02/03 21:43:57;;;;;;;7.05;2.92;;;;;;;;;;5057850;28;20409;-76
2022/02/03 21:46:23;;;;;;;5.07;3.00;;;;;;;;;;5056062;28;20163;-77
2022/02/03 21:48:50;;;;;;;5.78;2.80;;;;;;;;;;5056855;28;20048;-76
2022/02/03 21:51:20;;;;;;;5.47;2.90;;;;;;;;;;5053500;28;20387;-77
2022/02/03 21:53:46;;;;;;;5.15;3.08;;;;;;;;;;5054392;28;20070;-76
2022/02/03 21:56:12;;;;;;;5.03;2.95;;;;;;;;;;5055194;28;20029;-77
2022/02/03 21:58:39;;;;;;;4.22;2.70;;;;;;;;;;5052652;28;20017;-77
2022/02/03 22:01:04;;;;;;;4.03;2.90;;;;;;;;;;5054876;28;20037;-77
2022/02/03 22:03:31;;;;;;;4.38;2.95;;;;;;;;;;5056537;28;20516;-77
2022/02/03 22:05:57;;;;;;;6.05;3.05;;;;;;;;;;5055672;28;20378;-77
2022/02/03 22:08:23;;;;;;;5.30;3.10;;;;;;;;;;5054038;28;20025;-76
2022/02/03 22:10:50;;;;;;;4.18;2.78;;;;;;;;;;5055418;28;20032;-76
2022/02/03 22:13:18;;;;;;;3.88;2.70;;;;;;;;;;5053129;28;20063;-78
2022/02/03 22:15:44;;;;;;;6.45;2.75;;;;;;;;;;5054480;28;20048;-77
2022/02/03 22:18:16;;;;;;;5.75;3.28;;;;;;;;;;5053851;28;20029;-77
2022/02/03 22:21:01;;;;;;;4.57;2.88;;;;;;;;;;5053491;28;20224;-77
2022/02/03 22:23:56;;;;;;;6.03;2.88;;;;;;;;;;5053476;28;20036;-77
2022/02/03 22:42:49;;;;;;;4.60;2.85;;;;;;;;;;5040022;28;20059;-76
2022/02/03 22:45:21;;;;;;;4.28;2.90;;;;;;;;;;5055850;28;20076;-77
2022/02/03 22:50:16;;;;;;;5.63;3.10;;;;;;;;;;5054953;28;20033;-77
2022/02/03 22:52:42;;;;;;;4.15;3.05;;;;;;;;;;5053525;28;20093;-77
2022/02/03 22:55:09;;;;;;;5.85;3.05;;;;;;;;;;5055771;28;20033;-77
2022/02/03 22:57:35;;;;;;;4.93;3.40;;;;;;;;;;5055385;28;20029;-77
2022/02/03 23:00:14;;;;;;;6.90;3.33;;;;;;;;;;5054307;28;20142;-77
2022/02/03 23:02:41;;;;;;;6.25;3.55;;;;;;;;;;5055632;28;20485;-77
2022/02/03 23:05:07;;;;;;;8.00;3.60;;;;;;;;;;5055121;28;20033;-77
2022/02/03 23:08:04;;;;;;;6.10;3.25;;;;;;;;;;5054903;28;20025;-77
2022/02/03 23:10:44;;;;;;;5.28;3.40;;;;;;;;;;5053968;28;20021;-77
2022/02/03 23:13:25;;;;;;;7.47;3.95;;;;;;;;;;5055421;28;20033;-77
2022/02/03 23:16:05;;;;;;;5.30;3.35;;;;;;;;;;5055771;28;20036;-77
2022/02/03 23:21:49;;;;;;;10.10;3.13;;;;;;;;;;5035274;28;20038;-77
2022/02/03 23:24:02;;;;;;;6.20;3.38;;;;;;;;;;5034426;28;20406;-77
2022/02/03 23:26:29;;;;;;;5.55;3.50;;;;;;;;;;5038673;28;20040;-76
2022/02/03 23:29:09;;;;;;;6.35;3.55;;;;;;;;;;5054395;28;20105;-76
2022/02/03 23:31:44;;;;;;;5.43;3.45;;;;;;;;;;5033156;28;20129;-77
2022/02/03 23:34:10;;;;;;;7.22;3.70;;;;;;;;;;5037289;28;20021;-77
2022/02/03 23:36:37;;;;;;;4.50;2.78;;;;;;;;;;5052908;28;20029;-77
2022/02/03 23:44:07;;;;;;;4.55;3.00;;;;;;;;;;5053252;28;20029;-77
2022/02/03 23:47:08;;;;;;;4.82;2.70;;;;;;;;;;5058738;28;20021;-76
